Time;durP1;ratioP1;P1;durP2;ratioP2;P2;SDS_P1;SDS_P2;PMS_P1;PMS_P2;Temp;Humidity;BMP_temperature;BMP_pressure;BME280_temperature;BME280_humidity;BME280_pressure;Samples;Min_cycle;Max_cycle;Signal;HPM_P1;HPM_P2
2021/12/22 00:01:13;;;;;;;27.45;11.85;;;;;;;6.51;55.72;101161.94;4841064;29;20038;-88
2021/12/22 00:03:42;;;;;;;29.38;11.70;;;;;;;6.44;56.41;101163.94;4841449;29;20038;-88
2021/12/22 00:06:07;;;;;;;24.33;12.30;;;;;;;6.40;56.45;101166.72;4841512;29;20034;-88
2021/12/22 00:08:33;;;;;;;25.30;12.63;;;;;;;6.44;56.48;101165.72;4841374;29;20117;-88
2021/12/22 00:10:58;;;;;;;25.63;12.07;;;;;;;6.35;56.54;101169.50;4841199;29;20033;-88
2021/12/22 00:13:23;;;;;;;22.05;12.32;;;;;;;6.33;56.12;101169.56;4841209;29;20026;-89
2021/12/22 00:15:49;;;;;;;20.98;12.32;;;;;;;6.20;56.49;101167.47;4841077;29;20042;-88
2021/12/22 00:18:14;;;;;;;21.92;12.35;;;;;;;6.26;56.61;101175.94;4841160;29;20026;-89
2021/12/22 00:20:40;;;;;;;25.38;12.35;;;;;;;6.26;56.91;101173.31;4841193;29;20500;-89
2021/12/22 00:23:05;;;;;;;26.30;11.60;;;;;;;6.25;56.41;101170.75;4840003;29;20384;-88
2021/12/22 00:25:31;;;;;;;20.13;11.38;;;;;;;6.23;56.56;101178.63;4841117;29;20105;-88
2021/12/22 00:27:58;;;;;;;22.35;10.77;;;;;;;6.19;56.68;101177.06;4841121;29;20115;-88
2021/12/22 00:30:24;;;;;;;17.98;9.93;;;;;;;6.15;56.56;101170.25;4840515;29;20030;-88
2021/12/22 00:32:52;;;;;;;22.90;11.70;;;;;;;6.10;56.79;101156.53;4840717;29;20030;-88
2021/12/22 00:35:21;;;;;;;23.10;11.20;;;;;;;5.70;57.45;101148.38;4841020;29;20037;-88
2021/12/22 00:37:47;;;;;;;22.77;11.70;;;;;;;5.88;57.63;101144.25;4841412;29;20022;-88
2021/12/22 00:40:13;;;;;;;20.15;10.73;;;;;;;5.88;57.42;101135.59;4840823;29;20415;-88
2021/12/22 00:42:38;;;;;;;22.05;10.82;;;;;;;5.85;57.60;101141.78;4840749;29;20138;-88
2021/12/22 00:45:05;;;;;;;24.55;11.20;;;;;;;5.86;57.14;101143.47;4841015;29;20294;-88
2021/12/22 00:47:31;;;;;;;21.67;11.48;;;;;;;5.85;56.78;101126.13;4841150;29;20493;-88
2021/12/22 00:49:58;;;;;;;24.52;11.55;;;;;;;5.88;57.16;101120.78;4840676;29;20042;-88
2021/12/22 00:52:24;;;;;;;18.95;10.40;;;;;;;5.70;57.54;101121.47;4841334;29;20029;-88
2021/12/22 00:54:50;;;;;;;19.38;10.60;;;;;;;5.60;58.04;101130.53;4841260;29;20496;-88
2021/12/22 00:57:16;;;;;;;22.95;10.48;;;;;;;5.46;58.12;101124.06;4840892;29;20041;-87
2021/12/22 00:59:43;;;;;;;20.70;9.95;;;;;;;5.41;58.11;101115.56;4840911;29;20030;-88
2021/12/22 01:02:11;;;;;;;21.90;10.57;;;;;;;5.43;58.43;101124.19;4840817;29;20067;-87
2021/12/22 01:04:37;;;;;;;20.38;10.15;;;;;;;5.58;57.85;101122.78;4840601;29;20042;-88
2021/12/22 01:07:04;;;;;;;20.92;10.27;;;;;;;5.55;58.26;101115.91;4840727;29;20030;-88
2021/12/22 01:09:29;;;;;;;21.88;11.88;;;;;;;5.46;58.38;101113.63;4840725;29;20090;-88
2021/12/22 01:11:55;;;;;;;20.33;10.32;;;;;;;5.69;58.21;101119.78;4844370;29;20034;-88
2021/12/22 01:14:22;;;;;;;21.10;10.57;;;;;;;5.83;57.10;101129.72;4844448;29;20034;-88
2021/12/22 01:16:50;;;;;;;19.67;11.10;;;;;;;5.84;57.64;101127.03;4844251;29;20535;-88
2021/12/22 01:19:22;;;;;;;24.55;12.00;;;;;;;5.92;57.10;101121.53;4843807;29;20484;-87
2021/12/22 01:21:55;;;;;;;30.50;10.95;;;;;;;5.87;57.13;101120.88;4843942;29;20041;-87
2021/12/22 01:26:51;;;;;;;26.20;11.38;;;;;;;5.78;57.31;101103.81;4844051;29;20033;-89
2021/12/22 01:29:17;;;;;;;24.63;11.30;;;;;;;5.78;57.70;101106.41;4844119;29;20029;-88
2021/12/22 01:31:43;;;;;;;22.60;10.98;;;;;;;5.88;56.92;101107.75;4843849;29;20463;-88
2021/12/22 01:34:09;;;;;;;19.02;11.15;;;;;;;5.85;57.33;101102.69;4843531;29;20026;-88
2021/12/22 01:36:35;;;;;;;25.02;11.27;;;;;;;5.82;57.16;101091.50;4843743;29;20378;-88
2021/12/22 01:39:01;;;;;;;24.17;11.48;;;;;;;5.81;56.92;101093.28;4843633;29;20048;-88
2021/12/22 01:41:26;;;;;;;22.52;10.40;;;;;;;5.81;57.32;101089.84;4843809;29;20485;-88
2021/12/22 01:43:54;;;;;;;18.13;10.63;;;;;;;5.82;57.31;101084.53;4843833;29;20084;-88
2021/12/22 01:49:10;;;;;;;18.88;11.30;;;;;;;5.77;57.90;101073.47;4843486;29;20053;-88
2021/12/22 01:51:35;;;;;;;26.38;11.95;;;;;;;5.72;58.35;101070.16;4843633;29;20484;-88
2021/12/22 01:54:06;;;;;;;27.05;12.80;;;;;;;5.74;57.45;101065.75;4843514;29;20037;-88
2021/12/22 01:56:33;;;;;;;23.27;11.70;;;;;;;5.81;58.17;101059.41;4843575;29;20034;-89
2021/12/22 01:59:01;;;;;;;28.02;11.25;;;;;;;5.85;58.69;101065.34;4843387;29;20025;-88
2021/12/22 02:01:29;;;;;;;26.70;10.80;;;;;;;5.88;58.25;101070.44;4843419;29;20030;-88
2021/12/22 02:03:54;;;;;;;26.35;12.98;;;;;;;5.50;59.32;101073.53;4843005;29;20404;-88
2021/12/22 02:06:21;;;;;;;22.52;10.25;;;;;;;5.66;59.39;101073.00;4843245;29;20030;-88
2021/12/22 02:08:46;;;;;;;21.45;10.23;;;;;;;5.70;59.35;101064.16;4843306;29;20022;-88
2021/12/22 02:11:16;;;;;;;19.80;9.90;;;;;;;5.67;59.75;101064.28;4843058;29;20032;-89
2021/12/22 02:13:47;;;;;;;25.20;11.32;;;;;;;5.68;60.24;101051.19;4843320;29;20030;-88
2021/12/22 02:16:15;;;;;;;18.55;10.27;;;;;;;5.56;60.64;101051.63;4843190;29;20408;-88
2021/12/22 02:18:50;;;;;;;23.45;10.88;;;;;;;5.82;60.21;101053.25;4842472;29;20069;-87
2021/12/22 02:21:18;;;;;;;21.35;11.60;;;;;;;5.86;59.87;101044.41;4842475;29;20488;-88
2021/12/22 02:23:44;;;;;;;30.88;11.57;;;;;;;5.81;59.27;101046.38;4841604;29;20369;-88
2021/12/22 02:26:24;;;;;;;19.30;11.20;;;;;;;5.51;61.00;101044.00;4843029;29;20036;-88
2021/12/22 02:28:58;;;;;;;20.17;11.05;;;;;;;5.63;60.45;101042.69;4842967;29;20026;-88
2021/12/22 02:31:24;;;;;;;24.00;10.70;;;;;;;5.63;60.44;101029.69;4842795;29;20052;-88
2021/12/22 02:33:51;;;;;;;29.90;11.05;;;;;;;5.83;60.19;101017.66;4842652;29;20488;-88
2021/12/22 02:38:46;;;;;;;21.88;9.88;;;;;;;6.02;60.06;101020.41;4842826;29;20034;-88
2021/12/22 02:41:14;;;;;;;24.08;10.60;;;;;;;5.90;61.00;101029.53;4842759;29;20145;-88
2021/12/22 02:43:48;;;;;;;21.13;10.23;;;;;;;5.86;61.76;101034.00;4841424;29;20098;-88
2021/12/22 02:46:16;;;;;;;25.80;10.63;;;;;;;6.09;60.88;101020.13;4842737;29;20109;-88
2021/12/22 02:48:43;;;;;;;23.00;9.93;;;;;;;6.11;60.16;101025.28;4841981;29;20038;-88
2021/12/22 02:51:09;;;;;;;23.80;9.75;;;;;;;5.89;61.18;101023.47;4842508;29;20058;-88
2021/12/22 02:53:42;;;;;;;22.15;9.45;;;;;;;5.74;63.24;101022.28;4842465;29;20477;-88
2021/12/22 02:56:28;;;;;;;30.02;10.43;;;;;;;6.05;62.16;101022.91;4842335;29;20046;-88
2021/12/22 03:04:13;;;;;;;20.63;9.77;;;;;;;6.19;61.02;101020.59;4841603;29;20038;-88
2021/12/22 03:06:48;;;;;;;25.27;11.25;;;;;;;6.33;59.68;101033.94;4842177;29;20033;-88
2021/12/22 03:09:25;;;;;;;21.23;9.80;;;;;;;6.30;59.70;101033.19;4841205;29;20437;-88
2021/12/22 03:11:52;;;;;;;24.75;11.68;;;;;;;6.13;59.55;101031.28;4842170;29;20040;-88
2021/12/22 03:14:19;;;;;;;25.58;10.35;;;;;;;6.19;59.36;101027.59;4842230;29;20030;-88
2021/12/22 03:16:45;;;;;;;20.98;11.40;;;;;;;6.19;59.58;101025.81;4841981;29;20026;-89
2021/12/22 03:19:17;;;;;;;26.83;10.50;;;;;;;6.03;59.78;101012.53;4841539;29;20061;-88
2021/12/22 03:21:44;;;;;;;20.33;11.00;;;;;;;6.07;59.66;101008.06;4841794;29;20466;-88
2021/12/22 03:24:11;;;;;;;30.85;11.38;;;;;;;5.98;59.88;100997.97;4841736;29;20030;-89
2021/12/22 03:26:44;;;;;;;22.65;10.57;;;;;;;6.02;60.13;100997.78;4841844;29;20041;-88
2021/12/22 03:29:11;;;;;;;19.50;10.70;;;;;;;5.97;60.12;100993.69;4841671;29;20397;-88
2021/12/22 03:31:37;;;;;;;23.17;11.50;;;;;;;5.86;60.61;100992.28;4841586;29;20129;-88
2021/12/22 03:34:03;;;;;;;30.45;11.40;;;;;;;5.90;60.78;100987.81;4840758;29;20100;-88
2021/12/22 03:36:29;;;;;;;22.42;12.18;;;;;;;5.84;60.29;100983.69;4841663;29;20030;-88
2021/12/22 03:38:54;;;;;;;20.17;11.18;;;;;;;5.82;60.36;100977.69;4841719;29;20041;-87
2021/12/22 03:41:20;;;;;;;25.40;12.10;;;;;;;5.76;60.96;100970.13;4841558;29;20025;-88
2021/12/22 03:43:45;;;;;;;19.50;10.30;;;;;;;5.62;61.54;100962.00;4841529;29;20083;-88
2021/12/22 03:46:11;;;;;;;18.92;9.90;;;;;;;5.31;65.00;100956.19;4841327;29;20353;-89
2021/12/22 03:48:36;;;;;;;27.17;10.65;;;;;;;5.59;63.95;100956.88;4841292;29;20030;-89
2021/12/22 03:51:02;;;;;;;34.28;11.52;;;;;;;5.92;62.86;100952.13;4841342;29;20116;-87
2021/12/22 03:53:27;;;;;;;24.50;12.20;;;;;;;5.95;62.63;100939.84;4841798;29;20118;-88
2021/12/22 03:55:53;;;;;;;23.90;11.40;;;;;;;6.04;62.43;100950.81;4841494;29;20090;-88
2021/12/22 03:58:19;;;;;;;26.15;10.85;;;;;;;6.02;62.21;100955.25;4841246;29;20026;-88
2021/12/22 04:00:45;;;;;;;24.40;12.93;;;;;;;5.91;61.90;100943.47;4841021;29;20038;-88
2021/12/22 04:03:16;;;;;;;25.38;10.85;;;;;;;5.96;61.67;100948.50;4841041;29;20085;-88
2021/12/22 04:05:43;;;;;;;23.75;11.15;;;;;;;5.91;62.49;100947.84;4841496;29;20425;-88
2021/12/22 04:08:10;;;;;;;21.27;11.88;;;;;;;5.90;62.53;100960.00;4841750;29;20052;-88
2021/12/22 04:10:36;;;;;;;24.67;11.35;;;;;;;5.86;62.83;100947.16;4841560;29;20026;-88
2021/12/22 04:13:01;;;;;;;33.15;9.98;;;;;;;5.93;62.91;100941.63;4841785;29;20042;-88
2021/12/22 04:15:27;;;;;;;21.58;10.23;;;;;;;5.60;64.76;100945.56;4842145;29;20025;-88
2021/12/22 04:17:53;;;;;;;29.35;10.65;;;;;;;5.79;64.47;100943.94;4841424;29;20366;-88
2021/12/22 04:20:19;;;;;;;20.25;10.63;;;;;;;5.98;63.31;100956.28;4841614;29;20037;-88
2021/12/22 04:22:44;;;;;;;21.75;10.38;;;;;;;6.21;62.58;100956.19;4841140;29;20105;-88
2021/12/22 04:25:10;;;;;;;26.52;10.90;;;;;;;6.08;62.59;100937.59;4841193;29;20034;-88
2021/12/22 04:27:37;;;;;;;24.05;10.93;;;;;;;6.21;62.00;100932.72;4841256;29;20037;-88
2021/12/22 04:30:05;;;;;;;22.27;11.27;;;;;;;6.21;61.86;100929.28;4841205;29;20049;-88
2021/12/22 04:32:31;;;;;;;18.98;10.52;;;;;;;6.06;61.71;100923.78;4840922;29;20040;-88
2021/12/22 04:34:56;;;;;;;21.75;10.52;;;;;;;6.04;62.16;100916.91;4839750;29;20785;-88
2021/12/22 04:37:21;;;;;;;25.38;10.60;;;;;;;5.89;62.56;100921.81;4841141;29;20369;-88
2021/12/22 04:39:48;;;;;;;24.52;11.25;;;;;;;5.96;62.53;100925.06;4840869;29;20053;-88
2021/12/22 04:42:16;;;;;;;22.23;11.32;;;;;;;5.93;62.45;100926.00;4840916;29;20037;-88
2021/12/22 04:44:41;;;;;;;27.55;11.90;;;;;;;5.98;62.75;100925.84;4841201;29;20030;-88
2021/12/22 04:47:07;;;;;;;28.40;11.77;;;;;;;5.89;62.44;100921.81;4844394;29;20048;-88
2021/12/22 04:49:32;;;;;;;25.95;11.32;;;;;;;5.77;62.77;100922.31;4846947;29;20094;-88
2021/12/22 04:51:59;;;;;;;26.42;12.27;;;;;;;5.79;62.99;100922.25;4844252;29;20105;-88
2021/12/22 04:56:55;;;;;;;25.73;12.38;;;;;;;5.71;63.12;100899.13;4844080;29;20634;-88
2021/12/22 04:59:21;;;;;;;29.38;12.93;;;;;;;5.82;63.29;100896.06;4844296;29;20072;-89
2021/12/22 05:01:46;;;;;;;23.05;11.18;;;;;;;5.92;62.07;100907.81;4844507;29;20070;-88
2021/12/22 05:04:12;;;;;;;23.55;11.40;;;;;;;5.93;62.60;100912.97;4844316;29;20021;-87
2021/12/22 05:06:37;;;;;;;29.15;12.63;;;;;;;5.83;63.27;100903.84;4844356;29;20374;-88
2021/12/22 05:09:04;;;;;;;21.35;12.13;;;;;;;5.97;62.55;100916.34;4844104;29;20051;-89
2021/12/22 05:11:30;;;;;;;20.48;10.88;;;;;;;5.91;62.62;100912.19;4844065;29;20492;-88
2021/12/22 05:13:55;;;;;;;20.75;11.48;;;;;;;6.00;62.94;100910.13;4844272;29;20053;-88
2021/12/22 05:16:21;;;;;;;22.77;12.15;;;;;;;6.04;62.69;100912.56;4844257;29;20022;-88
2021/12/22 05:21:13;;;;;;;32.08;12.23;;;;;;;6.04;63.58;100932.56;4844065;29;20049;-88
2021/12/22 05:23:39;;;;;;;26.13;12.05;;;;;;;6.12;62.97;100940.91;4844037;29;20523;-88
2021/12/22 05:26:04;;;;;;;29.85;12.90;;;;;;;6.38;62.94;100939.84;4844203;29;20061;-88
2021/12/22 05:28:29;;;;;;;23.05;12.68;;;;;;;6.32;62.80;100927.91;4844112;29;20916;-88
2021/12/22 05:30:55;;;;;;;27.58;13.18;;;;;;;6.36;62.93;100933.88;4844034;29;20028;-88
2021/12/22 05:33:20;;;;;;;24.23;11.88;;;;;;;6.51;61.60;100929.75;4843641;29;20044;-88
2021/12/22 05:35:45;;;;;;;27.10;12.63;;;;;;;6.43;61.71;100929.22;4844121;29;20567;-89
2021/12/22 05:38:11;;;;;;;23.20;12.45;;;;;;;6.54;62.07;100922.63;4844086;29;20065;-89
2021/12/22 05:40:37;;;;;;;24.23;12.35;;;;;;;6.55;61.84;100913.88;4843839;29;20060;-88
2021/12/22 05:43:02;;;;;;;29.85;12.48;;;;;;;6.60;61.62;100913.69;4843485;29;20034;-88
2021/12/22 05:45:27;;;;;;;27.27;12.48;;;;;;;6.56;62.07;100904.31;4843814;29;20034;-88
2021/12/22 05:47:53;;;;;;;25.77;11.45;;;;;;;6.71;61.66;100908.88;4843478;29;20058;-89
2021/12/22 05:50:21;;;;;;;25.00;12.77;;;;;;;6.75;62.01;100915.66;4843642;29;20105;-88
2021/12/22 05:52:47;;;;;;;26.40;13.70;;;;;;;6.80;62.35;100914.59;4843618;29;20041;-88
2021/12/22 05:55:12;;;;;;;25.30;13.07;;;;;;;6.75;61.99;100905.22;4843320;29;20025;-88
2021/12/22 05:57:38;;;;;;;33.35;13.73;;;;;;;6.62;62.73;100890.16;4843208;29;20025;-88
2021/12/22 06:00:05;;;;;;;36.33;14.80;;;;;;;6.31;63.88;100883.63;4843496;29;20047;-88
2021/12/22 06:02:30;;;;;;;28.08;14.38;;;;;;;6.39;63.72;100884.16;4843155;29;20037;-88
2021/12/22 06:04:56;;;;;;;27.23;13.65;;;;;;;6.37;64.32;100890.34;4843476;29;20381;-88
2021/12/22 06:07:21;;;;;;;30.35;13.30;;;;;;;6.39;64.08;100891.16;4843580;29;20029;-88
2021/12/22 06:09:46;;;;;;;29.30;15.05;;;;;;;6.49;64.08;100892.44;4843244;29;20159;-88
2021/12/22 06:12:12;;;;;;;33.42;14.57;;;;;;;6.38;64.61;100889.44;4843285;29;20041;-88
2021/12/22 06:14:37;;;;;;;27.65;14.60;;;;;;;6.72;63.40;100894.06;4843328;29;20052;-88
2021/12/22 06:17:03;;;;;;;31.08;15.23;;;;;;;7.03;62.37;100890.94;4843267;29;20045;-89
2021/12/22 06:19:28;;;;;;;30.88;16.48;;;;;;;7.13;62.67;100888.75;4843157;29;20034;-87
2021/12/22 06:21:54;;;;;;;26.20;14.38;;;;;;;7.32;61.56;100893.94;4843719;29;20090;-87
2021/12/22 06:24:19;;;;;;;34.08;17.13;;;;;;;6.90;63.45;100902.81;4846073;29;20033;-87
2021/12/22 06:26:45;;;;;;;26.65;15.02;;;;;;;7.04;63.15;100902.22;4843048;29;20034;-88
2021/12/22 06:29:10;;;;;;;24.85;14.73;;;;;;;7.33;62.67;100899.09;4843373;29;20500;-89
2021/12/22 06:31:36;;;;;;;33.78;16.70;;;;;;;7.20;62.96;100905.81;4842958;29;20041;-88
2021/12/22 06:34:03;;;;;;;29.65;16.08;;;;;;;7.31;62.96;100915.78;4861130;29;20038;-88
2021/12/22 06:36:28;;;;;;;25.33;14.35;;;;;;;7.42;62.53;100916.09;4861312;29;20109;-89
2021/12/22 06:38:54;;;;;;;25.25;15.80;;;;;;;7.40;62.49;100917.94;4860713;29;20085;-87
2021/12/22 06:41:20;;;;;;;28.92;15.25;;;;;;;7.42;62.32;100921.31;4850830;29;20093;-89
2021/12/22 06:43:45;;;;;;;31.33;16.15;;;;;;;7.42;62.29;100921.31;4857440;29;20058;-88
2021/12/22 06:46:11;;;;;;;29.58;15.23;;;;;;;7.56;62.08;100918.06;4861301;29;20030;-88
2021/12/22 06:48:37;;;;;;;27.52;14.40;;;;;;;7.61;62.18;100920.47;4861209;29;20451;-89
2021/12/22 06:51:02;;;;;;;27.08;15.20;;;;;;;7.51;62.16;100914.84;4858472;29;20045;-88
2021/12/22 06:53:28;;;;;;;28.42;15.52;;;;;;;7.50;62.32;100910.53;4840247;29;20030;-87
2021/12/22 06:55:53;;;;;;;24.48;15.23;;;;;;;7.50;62.58;100908.78;4839728;29;20026;-88
2021/12/22 06:58:19;;;;;;;26.02;15.63;;;;;;;7.53;61.61;100913.84;4841578;29;20094;-88
2021/12/22 07:00:45;;;;;;;27.38;15.30;;;;;;;7.59;61.74;100914.47;4827212;29;20113;-87
2021/12/22 07:03:10;;;;;;;37.03;16.27;;;;;;;7.60;62.03;100914.38;4842175;29;20034;-89
2021/12/22 07:05:36;;;;;;;25.88;14.25;;;;;;;7.55;62.81;100911.16;4841876;29;20045;-88
2021/12/22 07:08:01;;;;;;;29.60;15.45;;;;;;;7.52;62.57;100906.94;4834317;29;20034;-89
2021/12/22 07:10:27;;;;;;;34.80;16.63;;;;;;;7.21;63.76;100890.97;4840828;29;20044;-89
2021/12/22 07:12:52;;;;;;;32.92;14.95;;;;;;;7.23;64.11;100902.22;4848406;29;20499;-88
2021/12/22 07:15:18;;;;;;;26.77;14.77;;;;;;;7.17;63.94;100894.66;4840476;29;20116;-89
2021/12/22 07:17:47;;;;;;;24.40;13.05;;;;;;;7.21;64.00;100896.19;4841790;29;20034;-88
2021/12/22 07:20:13;;;;;;;31.23;12.45;;;;;;;7.73;62.01;100885.91;4832947;29;20432;-89
2021/12/22 07:22:39;;;;;;;28.70;13.90;;;;;;;7.36;63.57;100882.44;4848725;29;20050;-88
2021/12/22 07:25:06;;;;;;;21.52;13.02;;;;;;;7.09;64.19;100877.59;4849306;29;20037;-88
2021/12/22 07:27:32;;;;;;;30.83;13.80;;;;;;;7.37;63.93;100878.91;4841429;29;20042;-89
2021/12/22 07:29:57;;;;;;;26.52;14.20;;;;;;;7.29;63.91;100875.81;4838454;29;20488;-88
2021/12/22 07:32:23;;;;;;;25.73;12.93;;;;;;;7.26;64.17;100873.34;4847517;29;20036;-90
2021/12/22 07:34:57;;;;;;;27.00;14.07;;;;;;;7.31;63.68;100889.66;4853244;29;20118;-87
2021/12/22 07:37:31;;;;;;;23.85;12.63;;;;;;;7.35;62.84;100883.38;4840588;29;20041;-88
2021/12/22 07:39:57;;;;;;;26.00;12.82;;;;;;;7.14;63.92;100882.59;4840279;29;20074;-88
2021/12/22 07:42:22;;;;;;;26.02;12.52;;;;;;;7.07;64.05;100886.38;4845700;29;20022;-89
2021/12/22 07:44:48;;;;;;;24.88;12.75;;;;;;;7.13;63.26;100884.34;4853945;29;20030;-89
2021/12/22 07:47:14;;;;;;;23.10;12.40;;;;;;;7.03;63.33;100883.09;4841280;29;20045;-88
2021/12/22 07:49:39;;;;;;;29.92;13.30;;;;;;;7.20;63.87;100889.28;4841513;29;20033;-88
2021/12/22 07:52:05;;;;;;;26.20;13.18;;;;;;;7.42;62.88;100889.97;4843958;29;20094;-89
2021/12/22 07:54:30;;;;;;;22.55;12.02;;;;;;;7.14;63.86;100885.19;4856862;29;20292;-88
2021/12/22 07:56:56;;;;;;;24.00;12.18;;;;;;;7.04;64.38;100892.59;4841388;29;20030;-88
2021/12/22 07:59:21;;;;;;;28.38;12.82;;;;;;;7.19;63.32;100888.47;4841534;29;20045;-89
2021/12/22 08:01:47;;;;;;;22.98;12.50;;;;;;;6.93;64.28;100887.00;4841898;29;20041;-90
2021/12/22 08:04:12;;;;;;;25.90;13.27;;;;;;;6.65;65.52;100877.78;4841115;29;20038;-89
2021/12/22 08:06:38;;;;;;;29.90;14.43;;;;;;;6.72;64.56;100879.22;4841040;29;20030;-89
2021/12/22 08:09:03;;;;;;;26.35;12.82;;;;;;;6.75;64.75;100875.63;4841006;29;20114;-88
2021/12/22 08:11:29;;;;;;;23.30;12.00;;;;;;;6.57;64.71;100872.06;4841068;29;20030;-87
2021/12/22 08:13:54;;;;;;;24.73;12.80;;;;;;;6.63;65.30;100869.19;4844802;29;20067;-88
2021/12/22 08:16:20;;;;;;;22.88;12.77;;;;;;;6.54;65.14;100860.03;4838756;29;20045;-88
2021/12/22 08:18:45;;;;;;;21.70;12.00;;;;;;;6.74;64.62;100861.75;4840817;29;20094;-89
2021/12/22 08:21:11;;;;;;;20.85;11.55;;;;;;;6.70;64.40;100864.56;4839962;29;20044;-87
2021/12/22 08:23:36;;;;;;;26.45;12.88;;;;;;;6.80;64.46;100860.63;4842315;29;20029;-88
2021/12/22 08:26:02;;;;;;;24.38;11.05;;;;;;;7.16;63.64;100872.91;4837251;29;20442;-88
2021/12/22 08:28:27;;;;;;;22.02;12.38;;;;;;;6.90;63.62;100861.91;4835503;29;20117;-89
2021/12/22 08:30:53;;;;;;;28.75;13.38;;;;;;;6.89;63.57;100865.44;4830322;29;20469;-89
2021/12/22 08:33:24;;;;;;;23.50;11.10;;;;;;;6.98;63.32;100868.53;4843275;29;20033;-88
2021/12/22 08:38:50;;;;;;;19.27;12.10;;;;;;;7.28;62.23;100845.38;4839242;29;20041;-87
2021/12/22 08:41:31;;;;;;;21.10;10.57;;;;;;;7.10;62.69;100844.47;4841045;29;20041;-87
2021/12/22 08:44:05;;;;;;;20.40;11.32;;;;;;;7.19;62.54;100846.66;4839944;29;20105;-95
2021/12/22 08:46:32;;;;;;;21.92;10.38;;;;;;;7.44;62.12;100846.34;4841504;29;20038;-96
2021/12/22 08:48:58;;;;;;;19.42;10.48;;;;;;;7.46;62.34;100848.88;4853241;29;20026;-93
2021/12/22 08:51:24;;;;;;;28.10;11.77;;;;;;;7.40;61.95;100850.00;4821413;29;20159;-93
2021/12/22 08:53:51;;;;;;;26.58;12.07;;;;;;;7.41;61.89;100843.88;4839072;29;20026;-93
2021/12/22 08:56:16;;;;;;;29.80;11.63;;;;;;;7.63;61.29;100835.84;4840485;29;20508;-92
2021/12/22 08:58:42;;;;;;;23.45;11.80;;;;;;;7.56;61.44;100839.66;4836510;29;20038;-92
2021/12/22 09:01:07;;;;;;;22.15;10.38;;;;;;;7.33;62.42;100827.72;4840605;29;20090;-94
2021/12/22 09:03:33;;;;;;;26.83;10.65;;;;;;;7.71;60.97;100827.63;4838455;29;20411;-93
2021/12/22 09:05:59;;;;;;;22.90;10.32;;;;;;;7.50;60.86;100819.94;4838276;29;20489;-93
2021/12/22 09:08:25;;;;;;;20.48;9.55;;;;;;;7.64;61.34;100824.50;4838582;29;20093;-93
2021/12/22 09:10:51;;;;;;;18.90;10.10;;;;;;;7.88;60.25;100816.34;4834100;29;20450;-92
2021/12/22 09:13:18;;;;;;;17.13;10.52;;;;;;;7.90;60.53;100807.50;4840128;29;20049;-93
2021/12/22 09:15:44;;;;;;;19.40;10.38;;;;;;;7.92;60.09;100802.22;4838273;29;20133;-94
2021/12/22 09:18:09;;;;;;;19.83;10.55;;;;;;;7.92;60.39;100800.44;4825138;29;20489;-93
2021/12/22 09:20:35;;;;;;;27.05;11.80;;;;;;;7.70;61.09;100784.09;4833978;29;20034;-94
2021/12/22 09:23:00;;;;;;;19.65;9.80;;;;;;;7.91;60.44;100793.50;4842140;29;20030;-93
2021/12/22 09:25:25;;;;;;;24.40;9.88;;;;;;;8.03;59.61;100799.88;4843895;29;20034;-93
2021/12/22 09:27:51;;;;;;;22.75;10.45;;;;;;;7.97;60.78;100781.88;4830799;29;20087;-93
2021/12/22 09:30:16;;;;;;;20.45;10.50;;;;;;;8.16;59.68;100775.72;4842017;29;20385;-95
2021/12/22 09:32:42;;;;;;;20.20;9.25;;;;;;;8.09;59.38;100768.16;4852629;29;20038;-96
2021/12/22 09:35:08;;;;;;;19.95;10.20;;;;;;;8.03;59.93;100770.25;4844312;29;20122;-94
2021/12/22 09:37:34;;;;;;;20.20;9.55;;;;;;;8.20;60.05;100767.63;4842581;29;20042;-93
2021/12/22 09:39:59;;;;;;;20.45;9.85;;;;;;;8.16;59.78;100765.25;4844577;29;20037;-96
2021/12/22 09:42:25;;;;;;;19.58;10.05;;;;;;;8.01;59.92;100762.50;4844311;29;20429;-96
2021/12/22 09:44:50;;;;;;;17.50;9.00;;;;;;;8.05;60.27;100757.94;4843715;29;20485;-95
2021/12/22 09:47:26;;;;;;;16.67;9.10;;;;;;;8.16;59.90;100747.78;4844279;29;20290;-95
2021/12/22 09:50:12;;;;;;;22.92;9.25;;;;;;;8.14;59.64;100747.03;4844789;29;20038;-95
2021/12/22 09:52:39;;;;;;;17.92;8.30;;;;;;;8.17;59.68;100735.53;4835584;29;20127;-95
2021/12/22 09:55:07;;;;;;;21.13;8.27;;;;;;;7.85;60.51;100731.06;4826801;29;20037;-95
2021/12/22 09:57:33;;;;;;;17.27;8.48;;;;;;;7.97;60.61;100729.59;4839149;29;20068;-93
2021/12/22 10:00:00;;;;;;;20.08;7.70;;;;;;;8.34;59.82;100712.78;4845338;29;20045;-94
2021/12/22 10:02:29;;;;;;;15.27;8.07;;;;;;;8.19;59.47;100712.78;4846270;29;20030;-96
2021/12/22 10:04:59;;;;;;;12.93;7.15;;;;;;;8.08;60.12;100710.72;4848175;29;20070;-96
2021/12/22 10:07:28;;;;;;;21.73;8.43;;;;;;;8.31;59.22;100718.22;4857065;29;20010;-95
2021/12/22 10:09:59;;;;;;;21.05;8.25;;;;;;;8.51;59.27;100717.16;4848736;29;20142;-96
2021/12/22 10:12:26;;;;;;;22.70;8.77;;;;;;;8.41;59.83;100712.47;4952464;23;20046;-94
2021/12/22 10:14:57;;;;;;;16.08;7.82;;;;;;;8.21;60.34;100716.97;4852447;29;20073;-94
2021/12/22 10:17:44;;;;;;;16.55;7.35;;;;;;;8.62;59.41;100719.19;4838196;29;20034;-95
2021/12/22 10:20:13;;;;;;;17.80;8.30;;;;;;;8.39;59.64;100719.56;4836019;29;20045;-94
2021/12/22 10:22:49;;;;;;;19.65;7.28;;;;;;;8.36;59.90;100711.88;4828805;29;20576;-92
2021/12/22 10:25:22;;;;;;;14.18;6.35;;;;;;;8.67;58.40;100711.94;4837878;29;20034;-95
2021/12/22 10:28:06;;;;;;;31.90;13.35;;;;;;;8.75;58.51;100716.75;4832865;29;20022;-96
2021/12/22 10:30:41;;;;;;;34.03;14.73;;;;;;;8.85;58.45;100717.09;4832814;29;20034;-96
2021/12/22 10:33:18;;;;;;;17.88;7.95;;;;;;;8.30;59.20;100716.50;4843008;29;20034;-95
2021/12/22 10:35:49;;;;;;;13.35;7.47;;;;;;;8.75;58.50;100721.97;4838263;29;20040;-95
2021/12/22 10:38:18;;;;;;;15.60;6.93;;;;;;;8.96;58.21;100719.91;4832071;29;20112;-96
2021/12/22 10:40:52;;;;;;;16.40;7.10;;;;;;;8.86;58.26;100722.22;4843223;29;20074;-94
2021/12/22 10:43:21;;;;;;;12.80;6.25;;;;;;;8.85;58.03;100722.31;4839565;29;20030;-93
2021/12/22 10:45:51;;;;;;;14.15;7.43;;;;;;;9.12;57.28;100720.75;4830954;29;20065;-94
2021/12/22 10:51:08;;;;;;;14.75;6.50;;;;;;;9.19;57.19;100717.78;4826647;29;20050;-93
2021/12/22 10:53:49;;;;;;;13.40;6.35;;;;;;;9.05;57.36;100718.56;4826881;29;20094;-94
2021/12/22 10:56:37;;;;;;;14.40;6.13;;;;;;;9.26;56.66;100713.88;4831629;29;20060;-95
2021/12/22 10:59:08;;;;;;;15.48;7.20;;;;;;;9.30;56.88;100718.00;4833741;29;20034;-93
2021/12/22 11:01:37;;;;;;;16.80;7.05;;;;;;;9.23;56.91;100709.66;4830789;29;20030;-93
2021/12/22 11:04:13;;;;;;;15.82;6.72;;;;;;;9.20;56.78;100711.59;4830191;29;20041;-92
2021/12/22 11:06:39;;;;;;;14.50;6.18;;;;;;;9.19;57.54;100699.47;4835916;29;20065;-92
2021/12/22 11:09:10;;;;;;;14.77;6.50;;;;;;;9.19;56.67;100694.22;4832254;29;20038;-93
2021/12/22 11:11:59;;;;;;;13.23;6.80;;;;;;;9.11;57.48;100692.03;4834709;29;20038;-92
2021/12/22 11:14:30;;;;;;;13.18;7.55;;;;;;;9.12;57.49;100673.63;4835154;29;20424;-92
2021/12/22 11:17:03;;;;;;;14.23;6.97;;;;;;;8.86;58.53;100666.38;4833415;29;20034;-90
2021/12/22 11:19:49;;;;;;;14.07;6.90;;;;;;;8.76;58.72;100655.59;4832594;29;20030;-90
2021/12/22 11:22:16;;;;;;;15.35;5.93;;;;;;;8.89;58.63;100650.50;4828692;29;20091;-91
2021/12/22 11:24:46;;;;;;;13.88;6.68;;;;;;;9.25;57.45;100637.03;4834220;29;20477;-92
2021/12/22 11:27:15;;;;;;;15.15;6.70;;;;;;;8.98;58.31;100625.56;4834658;29;20065;-93
2021/12/22 11:29:54;;;;;;;15.77;7.68;;;;;;;9.03;57.91;100623.53;4827312;29;20443;-94
2021/12/22 11:32:22;;;;;;;12.68;6.32;;;;;;;9.04;57.63;100625.19;4836545;29;20373;-93
2021/12/22 11:34:50;;;;;;;13.93;6.07;;;;;;;9.03;57.71;100624.38;4830591;29;20054;-93
2021/12/22 11:37:16;;;;;;;14.65;6.93;;;;;;;9.19;57.54;100626.09;4837850;29;20022;-94
2021/12/22 11:39:43;;;;;;;18.23;6.68;;;;;;;9.36;57.46;100623.34;4832461;29;20094;-94
2021/12/22 11:42:09;;;;;;;16.25;7.45;;;;;;;9.27;57.20;100621.25;4824686;29;20040;-94
2021/12/22 11:44:38;;;;;;;16.35;6.68;;;;;;;8.77;58.82;100604.06;4833576;29;20131;-93